Time;durP1;ratioP1;P1;durP2;ratioP2;P2;SDS_P1;SDS_P2;PMS_P1;PMS_P2;Temp;Humidity;BMP_temperature;BMP_pressure;BME280_temperature;BME280_humidity;BME280_pressure;Samples;Min_cycle;Max_cycle;Signal;HPM_P1;HPM_P2
2022/02/10 00:21:59;;;;;;;7.75;4.90;;;;;;;13.08;57.84;102057.00;5010658;28;109587;-67
2022/02/10 00:25:14;;;;;;;8.10;4.55;;;;;;;13.09;57.80;102053.41;5013116;28;108688;-67
2022/02/10 00:35:58;;;;;;;6.97;4.75;;;;;;;13.06;57.64;102033.13;5013210;28;109122;-67
2022/02/10 00:38:31;;;;;;;9.13;4.50;;;;;;;13.05;57.66;102037.59;5013551;28;124720;-67
2022/02/10 00:40:58;;;;;;;8.52;4.40;;;;;;;13.04;57.57;102030.50;5012494;28;123778;-67
2022/02/10 00:43:25;;;;;;;7.45;4.78;;;;;;;13.07;57.56;102028.66;5012695;28;109930;-67
2022/02/10 00:45:52;;;;;;;7.45;4.50;;;;;;;13.07;57.68;102028.66;5011128;28;109875;-67
2022/02/10 00:48:20;;;;;;;7.93;4.60;;;;;;;13.05;57.47;102016.31;5009310;28;124027;-67
2022/02/10 00:50:50;;;;;;;7.68;4.45;;;;;;;13.07;57.46;102021.53;5009667;28;124121;-67
2022/02/10 00:53:27;;;;;;;6.47;4.80;;;;;;;13.05;57.67;102021.63;5013125;28;109026;-67
2022/02/10 00:55:54;;;;;;;7.28;4.65;;;;;;;13.05;57.49;102018.97;5009531;28;109013;-67
2022/02/10 00:58:27;;;;;;;7.55;4.78;;;;;;;13.04;57.35;102009.22;5011578;28;124113;-67
2022/02/10 01:12:27;;;;;;;6.63;4.45;;;;;;;12.93;57.58;102000.78;5011803;28;124018;-67
2022/02/10 01:31:28;;;;;;;7.28;4.60;;;;;;;12.85;57.72;101981.59;5010038;28;124092;-67
2022/02/10 01:33:55;;;;;;;7.40;4.80;;;;;;;12.85;57.45;101970.94;5012496;28;124732;-67
2022/02/10 01:36:22;;;;;;;8.55;4.78;;;;;;;12.84;57.41;101969.19;5011868;28;110727;-67
2022/02/10 01:38:50;;;;;;;8.15;5.10;;;;;;;12.83;57.56;101963.03;5012303;28;109889;-67
2022/02/10 02:03:52;;;;;;;7.93;5.38;;;;;;;12.75;57.45;101932.31;5012107;28;125421;-67
2022/02/10 02:06:24;;;;;;;9.38;5.88;;;;;;;12.74;57.55;101925.28;5011291;28;123636;-67
2022/02/10 02:08:52;;;;;;;10.80;6.07;;;;;;;12.74;57.51;101914.66;5013987;28;110233;-67
2022/02/10 02:11:26;;;;;;;11.75;6.30;;;;;;;12.76;57.71;101918.13;5013985;28;108721;-67
2022/02/10 02:13:53;;;;;;;9.07;6.18;;;;;;;12.75;57.44;101905.75;5015604;28;124373;-67
2022/02/10 02:16:25;;;;;;;12.18;6.85;;;;;;;12.74;57.55;101904.03;5015318;28;123927;-67
2022/02/10 02:18:53;;;;;;;10.00;6.00;;;;;;;12.72;57.59;101889.91;5013091;28;109257;-67
2022/02/10 02:21:20;;;;;;;10.55;6.38;;;;;;;12.72;57.71;101884.59;5013581;28;109227;-67
2022/02/10 02:23:48;;;;;;;10.45;6.68;;;;;;;12.71;57.55;101880.19;5015297;28;123884;-67
2022/02/10 02:26:21;;;;;;;9.90;6.80;;;;;;;12.70;57.38;101870.50;5015604;28;123997;-67
2022/02/10 02:28:52;;;;;;;11.13;6.68;;;;;;;12.69;57.65;101868.75;5015674;28;109784;-67
2022/02/10 02:31:24;;;;;;;9.75;6.63;;;;;;;12.70;57.45;101875.81;5013831;28;110420;-67
2022/02/10 02:39:42;;;;;;;10.75;7.00;;;;;;;12.70;57.41;101870.50;5012991;28;109231;-68
2022/02/10 03:05:10;;;;;;;12.02;7.18;;;;;;;12.51;57.46;101844.59;4995018;28;108628;-67
2022/02/10 03:07:45;;;;;;;11.48;7.28;;;;;;;12.49;57.72;101851.78;4993751;28;122995;-67
2022/02/10 03:12:42;;;;;;;11.20;7.13;;;;;;;12.48;57.73;101839.41;4993570;28;109364;-67
2022/02/10 03:15:20;;;;;;;12.82;7.90;;;;;;;12.46;57.58;101836.78;4993063;28;109450;-67
2022/02/10 03:20:42;;;;;;;15.23;7.85;;;;;;;12.41;58.01;101843.19;4993174;28;123328;-67
2022/02/10 04:02:41;;;;;;;17.90;9.40;;;;;;;11.83;57.95;101831.06;5010414;28;124651;-67
2022/02/10 04:07:42;;;;;;;17.25;9.10;;;;;;;11.82;57.96;101834.63;5013754;28;109147;-67
2022/02/10 04:10:31;;;;;;;15.05;8.90;;;;;;;11.80;57.95;101836.47;5011292;28;109370;-67
2022/02/10 04:21:04;;;;;;;16.13;9.25;;;;;;;11.76;58.04;101834.84;5010603;28;110115;-67
2022/02/10 04:45:35;;;;;;;19.13;9.35;;;;;;;11.63;58.40;101825.56;5009918;28;124187;-67
2022/02/10 05:01:17;;;;;;;;;;;;;;;11.62;58.47;101791.97;5012476;28;109411;-67
2022/02/10 05:17:36;;;;;;;;;;;;;;;11.56;58.62;101805.44;5010507;28;123959;-67
2022/02/10 05:22:44;;;;;;;23.63;10.98;;;;;;;11.57;58.71;101801.88;5011219;28;109560;-67
2022/02/10 05:36:10;;;;;;;20.65;11.32;;;;;;;11.55;58.60;101803.72;4997110;28;109883;-67
2022/02/10 05:38:45;;;;;;;21.95;11.32;;;;;;;11.53;58.84;101794.94;5011565;28;123123;-67
2022/02/10 05:43:46;;;;;;;19.77;10.70;;;;;;;11.49;58.72;101795.06;5016452;28;109227;-67
2022/02/10 05:56:58;;;;;;;23.73;11.40;;;;;;;11.44;58.45;101774.91;5013687;28;109748;-67
2022/02/10 06:51:32;;;;;;;26.67;12.80;;;;;;;11.13;59.26;101801.53;5011943;28;109691;-67
2022/02/10 07:08:05;;;;;;;27.63;13.63;;;;;;;11.10;59.27;101819.28;5013821;28;124680;-67
2022/02/10 07:44:18;;;;;;;31.73;15.50;;;;;;;11.09;59.98;101838.78;5014033;28;108982;-67
2022/02/10 07:52:02;;;;;;;25.85;13.23;;;;;;;11.08;59.96;101831.72;5011288;28;124380;-67
2022/02/10 07:57:14;;;;;;;28.45;15.10;;;;;;;11.09;60.21;101833.47;5013054;28;110185;-67
2022/02/10 08:25:59;;;;;;;29.15;15.10;;;;;;;11.13;60.49;101843.97;5012062;28;109152;-67
2022/02/10 08:55:14;;;;;;;38.50;17.88;;;;;;;11.25;61.07;101880.72;5013638;28;124767;-67
2022/02/10 09:01:18;;;;;;;41.10;18.10;;;;;;;11.30;61.44;101894.69;5012300;28;109248;-67
2022/02/10 09:17:02;;;;;;;28.70;13.93;;;;;;;11.35;61.37;101913.97;5009576;28;124069;-67
2022/02/10 09:19:44;;;;;;;25.95;12.85;;;;;;;11.34;61.62;101917.56;5013198;28;123768;-67
2022/02/10 09:58:13;;;;;;;5.43;1.92;;;;;;;11.34;61.16;101949.41;5009066;28;113506;-67
2022/02/10 10:00:53;;;;;;;5.70;1.85;;;;;;;11.29;60.90;101957.47;5008826;28;124477;-67
2022/02/10 10:03:32;;;;;;;3.97;1.58;;;;;;;11.27;60.94;101966.41;5010148;28;124013;-67
2022/02/10 10:06:14;;;;;;;4.68;1.20;;;;;;;11.25;60.84;101966.44;4993472;28;113698;-67
2022/02/10 10:08:56;;;;;;;3.20;0.93;;;;;;;11.22;60.47;101965.66;5007908;28;114018;-67
2022/02/10 10:14:27;;;;;;;2.33;1.00;;;;;;;11.17;60.44;101978.19;5010079;28;125997;-66
2022/02/10 10:20:05;;;;;;;2.47;1.27;;;;;;;11.18;59.87;101974.63;5007180;28;113806;-67
2022/02/10 10:50:48;;;;;;;4.80;1.30;;;;;;;11.44;59.71;101982.66;5011459;28;114415;-67
2022/02/10 10:58:28;;;;;;;4.18;1.38;;;;;;;11.58;59.56;101984.88;5011703;28;123675;-67
2022/02/10 11:03:34;;;;;;;4.13;1.85;;;;;;;11.65;59.56;101996.19;5010033;28;114179;-67
2022/02/10 11:04:46;;;;;;;5.35;1.60;;;;;;;11.73;59.09;101994.16;5012640;28;113940;-67
2022/02/10 11:38:27;;;;;;;3.72;1.45;;;;;;;12.29;59.00;101997.72;5010368;28;114610;-67
2022/02/10 11:40:56;;;;;;;5.65;1.60;;;;;;;12.32;58.80;101992.28;4994308;28;123553;-67
2022/02/10 11:47:03;;;;;;;3.17;1.40;;;;;;;12.40;58.95;101990.25;5010414;28;114064;-67
2022/02/10 14:10:49;;;;;;;6.00;2.05;;;;;;;12.74;55.40;101974.00;5010109;28;124230;-66
2022/02/10 14:18:49;;;;;;;6.97;1.90;;;;;;;12.72;55.11;101959.03;5012423;28;124204;-66
2022/02/10 14:21:24;;;;;;;6.55;1.80;;;;;;;12.71;55.16;101963.47;4995084;28;122879;-66
2022/02/10 14:26:31;;;;;;;6.07;1.48;;;;;;;12.74;55.05;101978.44;5011186;28;114645;-66
2022/02/10 14:28:58;;;;;;;6.97;1.65;;;;;;;12.73;54.89;101976.69;5009400;28;124762;-66
2022/02/10 14:31:26;;;;;;;8.32;1.85;;;;;;;12.71;54.64;101973.22;5010022;28;124670;-66
2022/02/10 14:33:54;;;;;;;5.63;1.60;;;;;;;12.71;54.77;101983.88;5013856;28;114131;-67
2022/02/10 14:36:43;;;;;;;4.88;1.92;;;;;;;12.69;54.64;101975.09;5013742;28;113869;-68
2022/02/10 14:39:27;;;;;;;9.43;1.90;;;;;;;12.63;54.70;101977.03;5011894;28;124761;-66
2022/02/10 15:29:45;;;;;;;3.45;1.27;;;;;;;11.92;55.26;102009.53;5010132;28;114054;-66
2022/02/10 15:48:51;;;;;;;;;;;;;;;11.50;55.96;102001.03;5010120;28;124227;-67
2022/02/10 16:17:35;;;;;;;8.23;1.90;;;;;;;11.23;56.76;101988.63;5010569;28;124081;-67
2022/02/10 16:20:07;;;;;;;6.32;1.70;;;;;;;11.21;56.83;101990.47;5008450;28;123703;-67
2022/02/10 16:22:38;;;;;;;10.45;2.33;;;;;;;11.23;56.77;101996.59;5009953;28;114311;-66
2022/02/10 16:25:09;;;;;;;4.65;2.00;;;;;;;11.24;57.02;101995.66;5009027;28;114659;-66
2022/02/10 16:27:37;;;;;;;4.60;1.92;;;;;;;11.24;56.68;101987.69;5008914;28;123877;-67
2022/02/10 16:30:13;;;;;;;6.63;2.30;;;;;;;11.25;56.77;101992.09;5008624;28;123799;-67
2022/02/10 16:32:45;;;;;;;5.75;2.08;;;;;;;11.25;56.76;101998.25;5009950;28;114546;-67
2022/02/10 16:35:17;;;;;;;7.13;2.38;;;;;;;11.25;56.94;101997.41;5009420;28;114251;-67
2022/02/10 16:37:49;;;;;;;8.00;2.40;;;;;;;11.25;56.86;101997.41;5007730;28;124754;-66
2022/02/10 16:40:22;;;;;;;7.80;2.50;;;;;;;11.27;56.79;101992.94;5006722;28;124308;-67
2022/02/10 16:42:54;;;;;;;6.40;2.35;;;;;;;11.29;56.98;101999.06;5009074;28;113299;-67
2022/02/10 16:45:26;;;;;;;5.88;2.30;;;;;;;11.28;57.13;101992.88;5009569;28;114088;-66
2022/02/10 16:47:59;;;;;;;7.20;2.25;;;;;;;11.28;56.92;101992.88;5007910;28;124022;-67
2022/02/10 16:50:31;;;;;;;6.95;2.35;;;;;;;11.28;57.03;101998.19;5007724;28;123739;-67
2022/02/10 16:53:08;;;;;;;9.85;2.28;;;;;;;11.28;57.02;101992.88;5009832;28;114519;-66
2022/02/10 16:55:49;;;;;;;4.68;2.05;;;;;;;11.27;56.87;101991.13;5008913;28;114062;-67
2022/02/10 17:20:43;;;;;;;6.45;2.45;;;;;;;11.06;56.96;101991.78;5009372;28;124723;-67
2022/02/10 17:28:34;;;;;;;7.40;2.55;;;;;;;11.02;57.11;101993.63;5009856;28;114755;-67
2022/02/10 17:31:53;;;;;;;8.60;2.00;;;;;;;11.03;56.90;101998.00;5008928;28;124418;-67
2022/02/10 17:45:08;;;;;;;3.83;1.50;;;;;;;10.90;56.71;101996.63;5012395;28;123889;-66
2022/02/10 17:53:14;;;;;;;;;;;;;;;10.87;56.62;102002.03;5012843;28;124353;-67
2022/02/10 17:55:41;;;;;;;4.35;1.40;;;;;;;10.86;56.50;102013.53;5011069;28;124003;-67
2022/02/10 17:58:08;;;;;;;6.57;1.88;;;;;;;10.85;56.43;102019.72;5010629;28;115508;-67
2022/02/10 18:00:35;;;;;;;6.78;1.70;;;;;;;10.83;56.25;102021.53;5012957;28;115668;-67
2022/02/10 18:03:03;;;;;;;5.10;1.52;;;;;;;10.80;56.31;102027.81;5012909;28;124142;-67
2022/02/10 18:06:07;;;;;;;4.22;1.52;;;;;;;10.77;56.27;102038.47;5012322;28;124081;-67
2022/02/10 18:08:27;;;;;;;8.05;1.92;;;;;;;10.74;56.19;102049.19;5013670;28;114098;-67
2022/02/10 18:16:21;;;;;;;4.05;1.30;;;;;;;10.68;55.92;102050.22;5012452;28;124238;-67
2022/02/10 18:18:54;;;;;;;7.38;1.45;;;;;;;10.67;55.95;102053.75;5009493;28;114083;-67
2022/02/10 18:29:05;;;;;;;4.63;1.40;;;;;;;10.62;56.10;102055.66;5010748;28;114915;-67
2022/02/10 18:35:10;;;;;;;4.30;1.52;;;;;;;10.59;55.87;102055.75;5010137;28;123933;-67
2022/02/10 19:10:20;;;;;;;5.15;1.42;;;;;;;10.49;55.72;102071.00;5010560;28;123966;-67
2022/02/10 19:12:53;;;;;;;10.10;1.80;;;;;;;10.50;55.82;102077.16;5011399;28;113139;-67
2022/02/10 19:15:23;;;;;;;4.75;1.90;;;;;;;10.50;56.10;102072.72;5010022;28;114036;-67
2022/02/10 19:17:52;;;;;;;6.68;1.98;;;;;;;10.50;55.99;102077.16;5011958;28;124363;-67
2022/02/10 19:20:21;;;;;;;5.82;1.85;;;;;;;10.50;55.98;102074.50;5009535;28;123616;-67
2022/02/10 19:22:50;;;;;;;6.68;2.20;;;;;;;10.50;55.69;102083.31;5010868;28;114066;-67
2022/02/10 19:25:18;;;;;;;7.22;1.90;;;;;;;10.47;55.80;102082.53;5009815;28;113613;-67
2022/02/10 19:27:45;;;;;;;6.53;1.60;;;;;;;10.44;55.63;102082.63;5012104;28;124855;-66
2022/02/10 19:30:15;;;;;;;6.93;1.50;;;;;;;10.40;55.46;102080.97;5008457;28;123704;-66
2022/02/10 19:32:49;;;;;;;4.32;1.33;;;;;;;10.35;55.27;102088.13;5010938;28;114055;-67
2022/02/10 19:35:20;;;;;;;6.65;1.70;;;;;;;10.31;55.47;102093.50;5012946;28;113772;-66
2022/02/10 19:37:52;;;;;;;4.93;1.27;;;;;;;10.26;55.16;102087.41;5011318;28;124864;-67
2022/02/10 19:40:20;;;;;;;4.80;1.10;;;;;;;10.24;55.41;102091.88;5011099;28;124067;-67
2022/02/10 19:42:48;;;;;;;6.47;1.20;;;;;;;10.21;55.14;102086.66;5011811;28;115218;-67
2022/02/10 19:45:15;;;;;;;6.45;1.55;;;;;;;10.19;55.12;102088.47;5011011;28;113569;-67
2022/02/10 19:47:43;;;;;;;5.63;1.10;;;;;;;10.17;55.22;102089.41;5012156;28;124484;-67
2022/02/10 19:50:14;;;;;;;6.05;1.10;;;;;;;10.14;55.17;102079.75;5007332;28;124433;-67
2022/02/10 19:52:48;;;;;;;6.97;1.20;;;;;;;10.14;55.00;102083.28;5010785;28;114891;-67
2022/02/10 19:55:20;;;;;;;2.60;1.08;;;;;;;10.13;55.02;102088.59;5009448;28;114363;-67
2022/02/10 19:57:48;;;;;;;3.13;1.15;;;;;;;10.11;55.13;102088.66;5009806;28;124071;-67
2022/02/10 20:00:20;;;;;;;7.07;1.25;;;;;;;10.11;54.75;102090.41;5009975;28;124601;-67
2022/02/10 20:02:48;;;;;;;4.75;1.38;;;;;;;10.10;55.15;102104.56;5010978;28;113597;-67
2022/02/10 20:05:24;;;;;;;5.22;1.40;;;;;;;10.07;55.14;102099.34;5010431;28;112910;-67
2022/02/10 20:07:53;;;;;;;2.58;1.20;;;;;;;10.06;54.96;102092.31;5011220;28;124665;-67
2022/02/10 20:10:21;;;;;;;4.85;1.58;;;;;;;10.06;55.14;102089.66;5009810;28;123464;-67
2022/02/10 20:12:49;;;;;;;4.85;1.50;;;;;;;10.04;55.02;102100.28;5010432;28;114138;-67
2022/02/10 20:15:21;;;;;;;4.32;1.73;;;;;;;10.04;54.95;102091.44;5009085;28;113612;-67
2022/02/10 20:17:51;;;;;;;7.90;1.77;;;;;;;10.03;55.36;102087.06;5007329;28;124627;-67
2022/02/10 20:20:18;;;;;;;7.78;1.52;;;;;;;10.01;55.33;102097.69;5010639;28;123805;-68
2022/02/10 20:22:45;;;;;;;3.50;1.40;;;;;;;9.99;55.19;102096.00;5009674;28;114284;-67
2022/02/10 20:25:32;;;;;;;8.23;1.55;;;;;;;9.98;55.06;102102.19;5011032;28;113835;-67
2022/02/10 20:27:59;;;;;;;3.45;1.40;;;;;;;9.94;55.27;102099.63;5010667;28;124470;-67
2022/02/10 20:30:26;;;;;;;6.18;1.73;;;;;;;9.96;55.11;102098.69;5010568;28;124005;-67
2022/02/10 20:32:53;;;;;;;4.03;1.55;;;;;;;9.96;55.20;102091.63;5009550;28;115704;-67
2022/02/10 20:35:20;;;;;;;3.97;1.70;;;;;;;9.96;55.32;102090.75;5007391;28;115026;-67
2022/02/10 20:37:47;;;;;;;7.55;1.77;;;;;;;9.97;55.42;102092.53;5009523;28;123985;-67
2022/02/10 20:40:15;;;;;;;6.43;1.88;;;;;;;9.94;55.43;102094.34;5009562;28;123960;-67
2022/02/10 20:42:43;;;;;;;6.18;2.05;;;;;;;9.93;55.18;102097.88;5010937;28;114219;-67
2022/02/10 20:45:10;;;;;;;6.03;1.98;;;;;;;9.92;55.13;102101.41;5008598;28;114050;-67
2022/02/10 20:47:37;;;;;;;5.15;1.73;;;;;;;9.90;55.06;102095.28;5010049;28;122978;-67
2022/02/10 20:50:10;;;;;;;5.65;1.88;;;;;;;9.90;55.19;102097.91;5009624;28;122935;-68
2022/02/10 20:52:37;;;;;;;6.90;1.80;;;;;;;9.87;55.22;102113.88;5010270;28;114866;-68
2022/02/10 20:55:05;;;;;;;6.57;2.15;;;;;;;9.86;55.42;102101.53;5010640;28;114191;-67
2022/02/10 20:57:32;;;;;;;8.70;1.60;;;;;;;9.79;55.28;102094.63;5007383;28;124176;-67
2022/02/10 20:59:59;;;;;;;5.00;1.60;;;;;;;9.70;55.05;102100.13;5008056;28;124358;-67
2022/02/10 21:02:33;;;;;;;7.03;1.70;;;;;;;9.66;55.39;102101.09;5011071;28;113798;-67
2022/02/10 21:05:13;;;;;;;5.40;1.65;;;;;;;9.63;55.65;102109.97;5010006;28;114131;-67
2022/02/10 21:07:47;;;;;;;5.13;1.70;;;;;;;9.63;55.66;102098.53;5010533;28;124747;-68
2022/02/10 21:10:16;;;;;;;7.15;2.25;;;;;;;9.61;55.60;102097.69;5008860;28;123008;-67
2022/02/10 21:12:45;;;;;;;5.60;1.80;;;;;;;9.59;55.96;102096.84;5007685;28;114229;-67
2022/02/10 21:15:18;;;;;;;5.63;2.10;;;;;;;9.60;55.52;102093.31;5008618;28;114267;-67
2022/02/10 21:17:46;;;;;;;8.45;2.20;;;;;;;9.58;56.00;102084.53;5009845;28;124501;-67
2022/02/10 21:20:14;;;;;;;7.45;1.70;;;;;;;9.55;55.90;102096.91;5007208;28;123815;-67
2022/02/10 21:22:46;;;;;;;5.00;1.92;;;;;;;9.52;55.95;102096.97;5009953;28;115297;-67
2022/02/10 21:25:21;;;;;;;9.23;2.08;;;;;;;9.49;56.07;102099.69;5009905;28;114663;-67
2022/02/10 21:27:50;;;;;;;5.28;1.55;;;;;;;9.47;55.69;102098.81;5009473;28;123842;-67
2022/02/10 21:30:18;;;;;;;7.28;2.08;;;;;;;9.44;55.88;102104.19;5008699;28;122787;-67
2022/02/10 21:32:56;;;;;;;6.57;1.75;;;;;;;9.41;56.08;102103.38;5009435;28;115787;-67
2022/02/10 21:35:47;;;;;;;5.53;2.50;;;;;;;9.40;56.02;102112.22;5008326;28;114021;-67
2022/02/10 21:38:21;;;;;;;4.95;1.80;;;;;;;9.38;56.15;102109.63;5009186;28;123998;-67
2022/02/10 22:18:35;;;;;;;6.32;1.98;;;;;;;9.06;56.24;102110.19;5007576;28;114727;-67
2022/02/10 22:21:05;;;;;;;5.70;1.88;;;;;;;9.03;56.07;102108.50;5006355;28;124082;-67
2022/02/10 22:23:36;;;;;;;5.15;1.98;;;;;;;9.01;56.32;102115.59;5012663;28;124159;-67
2022/02/10 22:26:06;;;;;;;5.70;1.88;;;;;;;9.00;56.21;102113.81;5011971;28;114166;-67
2022/02/10 22:31:29;;;;;;;5.57;1.75;;;;;;;8.95;56.33;102106.00;5012384;28;125316;-67
2022/02/10 22:34:15;;;;;;;4.90;1.90;;;;;;;8.94;56.15;102103.38;5012322;28;124658;-67
2022/02/10 22:36:45;;;;;;;4.05;1.85;;;;;;;8.93;56.29;102107.78;5010580;28;114196;-67
2022/02/10 22:39:14;;;;;;;5.88;2.10;;;;;;;8.91;56.48;102109.59;5010393;28;113818;-67
2022/02/10 22:41:41;;;;;;;8.20;2.53;;;;;;;8.91;56.60;102119.28;5011331;28;124394;-67
2022/02/10 22:44:08;;;;;;;6.55;2.40;;;;;;;8.89;56.50;102110.50;5009935;28;123722;-67
2022/02/10 22:46:36;;;;;;;4.38;2.33;;;;;;;8.89;56.80;102110.50;5010312;28;115450;-67
2022/02/10 22:49:03;;;;;;;5.90;2.30;;;;;;;8.86;56.75;102110.56;5011508;28;114418;-67
2022/02/10 22:51:32;;;;;;;4.70;2.55;;;;;;;8.85;56.72;102108.81;5011177;28;124816;-67
2022/02/10 22:54:01;;;;;;;10.32;3.05;;;;;;;8.83;56.93;102100.91;5013380;28;123628;-67
2022/02/10 22:56:29;;;;;;;6.00;2.67;;;;;;;8.82;56.99;102108.88;5013378;28;114290;-67
2022/02/10 22:58:59;;;;;;;7.60;3.00;;;;;;;8.80;56.75;102110.66;5010502;28;114313;-67
2022/02/10 23:01:27;;;;;;;8.00;2.78;;;;;;;8.79;56.88;102108.94;5009316;28;124038;-67
2022/02/10 23:03:55;;;;;;;7.07;2.80;;;;;;;8.74;56.94;102107.25;5012871;28;124694;-67
2022/02/10 23:06:23;;;;;;;6.88;2.58;;;;;;;8.71;57.00;102112.56;5010266;28;114920;-68
2022/02/10 23:08:50;;;;;;;8.65;3.38;;;;;;;8.68;56.85;102112.66;5011419;28;113674;-68
2022/02/10 23:11:26;;;;;;;7.75;2.88;;;;;;;8.67;57.18;102121.44;5008935;28;124634;-67
2022/02/10 23:13:53;;;;;;;;;;;;;;;8.64;56.87;102118.84;5011810;28;124612;-68
2022/02/10 23:16:21;;;;;;;8.32;2.63;;;;;;;8.63;56.76;102118.91;5009925;28;114462;-68
2022/02/10 23:18:48;;;;;;;8.40;2.85;;;;;;;8.57;56.89;102109.31;4994871;28;113134;-67
2022/02/10 23:21:16;;;;;;;8.98;2.97;;;;;;;8.54;57.15;102109.34;5008882;28;123826;-68
2022/02/10 23:23:48;;;;;;;8.45;3.03;;;;;;;8.52;57.15;102111.13;5012560;28;123737;-68
2022/02/10 23:26:18;;;;;;;8.18;2.97;;;;;;;8.47;57.46;102123.53;5009913;28;114499;-68
2022/02/10 23:28:49;;;;;;;5.72;2.72;;;;;;;8.45;57.17;102120.06;5009864;28;113886;-68
2022/02/10 23:31:19;;;;;;;6.13;3.47;;;;;;;8.41;57.22;102118.31;5008365;28;123916;-68
2022/02/10 23:33:52;;;;;;;5.40;3.13;;;;;;;8.38;57.10;102125.41;5011323;28;123972;-68
2022/02/10 23:36:38;;;;;;;6.55;3.28;;;;;;;8.35;57.23;102125.44;5010716;28;114863;-68
2022/02/10 23:44:23;;;;;;;6.00;3.38;;;;;;;8.24;57.31;102124.72;5012118;28;124349;-67
2022/02/10 23:46:50;;;;;;;8.50;3.75;;;;;;;8.21;57.20;102127.38;5009035;28;114618;-68
2022/02/10 23:49:20;;;;;;;11.85;3.58;;;;;;;8.18;57.68;102127.47;5011041;28;114623;-67
2022/02/10 23:52:01;;;;;;;10.60;3.42;;;;;;;8.15;57.49;102132.78;5008445;28;124502;-67
2022/02/10 23:54:42;;;;;;;9.27;4.00;;;;;;;8.13;57.63;102129.28;5011508;28;124202;-68
